Latest Coastal Weather Observations for Maria Island

IDT60701

Issued at 12:42 am EDT Sunday 4 December 2016 (issued every 10 minutes, with the page automatically refreshed every 10 minutes)

About coastal observations | Map of coastal stations | Coastal observations for TAS | Marine services | Other Formats
Station Details ID: 092124 Name: MARIA ISLAND (POINT LESUEUR) Lat: -42.66 Lon: 148.02 Height: 28.0 m
Data from the previous 72 hours. | See also: Recent months at Maria Island
Date/Time
EDT
Temp
°C
Wind Pressure Rain since
9am
mm
Weather Cloud Vis
km
Sea
Height
m
Swell
Dir  Spd
kts
Gust
kts
hPa Trend Height
m
Period
s
Dir
04/12:30am 12.9 NW 2 3 1014.8 - 0.0 - - - - - - -
04/12:00am 12.2 NE 4 4 1014.9 - 0.0 - - - - - - -
 
Date/Time
EDT
Temp
°C
Wind Pressure Rain since
9am
mm
Weather Cloud Vis
km
Sea
Height
m
Swell
Dir  Spd
kts
Gust
kts
hPa Trend Height
m
Period
s
Dir
03/11:30pm 11.9 NE 5 6 1014.8 - 0.0 - - - - - - -
03/11:00pm 11.9 NNE 5 6 1014.9 - 0.0 - - - - - - -
03/10:30pm 12.3 NNE 5 6 1015.0 - 0.0 - - - - - - -
03/10:00pm 12.6 NNE 5 6 1015.0 - 0.0 - - - - - - -
03/09:30pm 13.2 NNE 5 7 1015.0 - 0.0 - - - - - - -
03/09:00pm 13.3 NE 6 8 1014.6 - 0.0 - - - - - - -
03/08:30pm 13.9 NE 9 13 1014.3 - 0.0 - - - - - - -
03/08:00pm 14.1 NNE 11 14 1014.3 - 0.0 - - - - - - -
03/07:30pm 14.5 NNE 9 12 1014.1 - 0.0 - - - - - - -
03/07:00pm 15.1 NE 11 16 1013.6 - 0.0 - - - - - - -
03/06:30pm 14.8 NNE 11 14 1013.5 - 0.0 - - - - - - -
03/06:00pm 15.3 NNE 12 15 1013.3 - 0.0 - - - - - - -
03/05:30pm 15.6 N 12 14 1013.3 - 0.0 - - - - - - -
03/05:00pm 16.1 N 11 15 1013.2 - 0.0 - - - - - - -
03/04:30pm 16.4 N 12 15 1013.3 - 0.0 - - - - - - -
03/04:00pm 16.4 N 14 16 1013.3 - 0.0 - - - - - - -
03/03:30pm 16.9 N 12 16 1013.4 - 0.0 - - - - - - -
03/03:00pm 16.4 N 7 11 1013.6 - 0.0 - - - - - - -
03/02:30pm 15.7 ESE 10 13 1013.9 - 0.0 - - - - - - -
03/02:00pm 15.6 ESE 11 14 1013.6 - 0.0 - - - - - - -
03/01:30pm 15.8 ESE 11 13 1013.4 - 0.0 - - - - - - -
03/01:00pm 16.4 ESE 12 15 1013.5 - 0.0 - - - - - - -
03/12:30pm 15.2 ESE 12 15 1013.5 - 0.0 - - - - - - -
03/12:00pm 15.6 E 9 14 1013.6 - 0.0 - - - - - - -
03/11:30am 16.2 ESE 6 8 1013.9 - 0.0 - - - - - - -
03/11:00am 14.9 NE 3 5 1013.9 - 0.0 - - - - - - -
03/10:30am 15.3 NNE 3 5 1013.6 - 0.0 - - - - - - -
03/10:00am 14.1 NNE 4 5 1013.4 - 0.0 - - - - - - -
03/09:30am 13.5 N 5 5 1013.5 - 0.0 - - - - - - -
03/09:00am 13.7 NNW 5 7 1013.5 - 0.0 - - - - - - -
03/08:30am 12.9 NNW 8 10 1013.4 - 0.0 - - - - - - -
03/08:00am 12.9 NNW 8 10 1013.4 - 0.0 - - - - - - -
03/07:30am 11.7 NNW 8 9 1013.0 - 0.0 - - - - - - -
03/07:00am 11.1 NW 5 7 1012.8 - 0.0 - - - - - - -
03/06:30am 10.7 WNW 5 7 1012.5 - 0.0 - - - - - - -
03/06:00am 10.3 NNW 7 8 1012.3 - 0.0 - - - - - - -
03/05:30am 10.2 WNW 9 10 1011.9 - 0.0 - - - - - - -
03/05:00am 10.7 NW 8 10 1011.6 - 0.0 - - - - - - -
03/04:30am 10.7 WNW 9 11 1011.4 - 0.0 - - - - - - -
03/04:00am 10.8 WNW 13 15 1011.2 - 0.0 - - - - - - -
03/03:30am 10.4 WNW 7 9 1011.2 - 0.0 - - - - - - -
03/03:00am 11.1 WNW 10 13 1011.1 - 0.0 - - - - - - -
03/02:30am 11.5 NW 11 13 1011.1 - 0.0 - - - - - - -
03/02:00am 11.9 NW 14 17 1010.9 - 0.0 - - - - - - -
03/01:30am 12.0 NW 12 14 1011.3 - 0.0 - - - - - - -
03/01:00am 12.2 WNW 11 14 1011.4 - 0.0 - - - - - - -
03/12:30am 12.7 W 23 29 1010.9 - 0.0 - - - - - - -
03/12:25am 12.8 W 24 29 1010.6 - 0.0 - - - - - - -
03/12:00am 12.8 W 12 17 1011.1 - 0.0 - - - - - - -
 
Date/Time
EDT
Temp
°C
Wind Pressure Rain since
9am
mm
Weather Cloud Vis
km
Sea
Height
m
Swell
Dir  Spd
kts
Gust
kts
hPa Trend Height
m
Period
s
Dir
02/11:30pm 13.5 WSW 25 30 1010.0 - 0.0 - - - - - - -
02/11:07pm 13.1 W 15 27 1009.9 - 0.0 - - - - - - -
02/11:00pm 12.9 W 11 15 1010.5 - 0.0 - - - - - - -
02/10:30pm 13.2 WNW 10 15 1010.7 - 0.0 - - - - - - -
02/10:00pm 13.7 WNW 8 13 1010.5 - 0.0 - - - - - - -
02/09:30pm 13.6 NW 9 12 1010.0 - 0.0 - - - - - - -
02/09:00pm 13.5 W 5 7 1009.3 - 0.0 - - - - - - -
02/08:30pm 13.6 SE 2 3 1008.7 - 0.0 - - - - - - -
02/08:00pm 13.8 E 7 9 1008.3 - 0.0 - - - - - - -
02/07:30pm 14.2 E 11 15 1007.7 - 0.0 - - - - - - -
02/07:00pm 14.6 E 11 13 1007.4 - 0.0 - - - - - - -
02/06:30pm 14.6 ESE 14 17 1006.8 - 0.0 - - - - - - -
02/06:00pm 14.7 ESE 15 19 1006.5 - 0.0 - - - - - - -
02/05:30pm 15.3 E 14 17 1006.2 - 0.0 - - - - - - -
02/05:00pm 15.2 ESE 14 19 1005.9 - 0.0 - - - - - - -
02/04:30pm 16.1 E 11 19 1005.9 - 0.0 - - - - - - -
02/04:00pm 16.6 ESE 5 10 1006.1 - 0.0 - - - - - - -
02/03:30pm 19.0 SW 4 9 1005.6 - 0.0 - - - - - - -
02/03:00pm 18.7 SW 8 12 1005.4 - 0.0 - - - - - - -
02/02:30pm 18.8 SW 8 16 1005.1 - 0.0 - - - - - - -
02/02:00pm 17.3 SW 11 13 1004.8 - 0.0 - - - - - - -
02/01:30pm 18.9 W 13 22 1004.5 - 0.0 - - - - - - -
02/01:00pm 17.6 SSW 6 9 1004.7 - 0.0 - - - - - - -
02/12:30pm 16.5 S 3 5 1004.7 - 0.0 - - - - - - -
02/12:00pm 16.4 WSW 7 10 1004.7 - 0.0 - - - - - - -
02/11:30am 15.8 SSW 12 15 1004.4 - 0.0 - - - - - - -
02/11:00am 16.1 SW 10 13 1004.2 - 0.0 - - - - - - -
02/10:30am 15.8 SW 19 26 1003.6 - 0.0 - - - - - - -
02/10:24am 16.8 W 14 23 1003.3 - 0.0 - - - - - - -
02/10:17am 16.8 NNW 11 19 1003.4 - 0.0 - - - - - - -
02/10:00am 15.9 NNW 7 9 1003.2 - 0.0 - - - - - - -
02/09:30am 16.8 NNW 11 15 1003.0 - 0.0 - - - - - - -
02/09:00am 16.8 NNW 9 13 1003.0 - 0.2 - - - - - - -
02/08:30am 16.2 NW 10 14 1002.9 - 0.2 - - - - - - -
02/08:00am 15.5 NW 8 10 1002.5 - 0.2 - - - - - - -
02/07:30am 14.8 WNW 6 11 1002.8 - 0.2 - - - - - - -
02/07:00am 13.9 WNW 3 5 1002.4 - 0.2 - - - - - - -
02/06:30am 13.2 W 2 3 1002.0 - 0.2 - - - - - - -
02/06:00am 12.2 ENE 4 5 1001.7 - 0.2 - - - - - - -
02/05:30am 12.4 ENE 5 7 1001.4 - 0.2 - - - - - - -
02/05:00am 12.8 ENE 6 9 1001.2 - 0.2 - - - - - - -
02/04:30am 13.2 ENE 3 4 1001.3 - 0.2 - - - - - - -
02/04:00am 13.5 SSE 7 9 1001.1 - 0.2 - - - - - - -
02/03:30am 13.6 S 14 17 1001.1 - 0.2 - - - - - - -
02/03:00am 14.1 SSW 13 15 1000.9 - 0.2 - - - - - - -
02/02:30am 15.0 NW 3 4 1001.0 - 0.2 - - - - - - -
02/02:00am 14.8 N 6 8 1001.0 - 0.2 - - - - - - -
02/01:30am 14.8 N 12 14 1001.2 - 0.2 - - - - - - -
02/01:00am 15.2 N 11 13 1001.2 - 0.2 - - - - - - -
02/12:30am 15.4 N 14 16 1001.2 - 0.2 - - - - - - -
02/12:00am 15.6 N 13 16 1001.4 - 0.2 - - - - - - -
 
Date/Time
EDT
Temp
°C
Wind Pressure Rain since
9am
mm
Weather Cloud Vis
km
Sea
Height
m
Swell
Dir  Spd
kts
Gust
kts
hPa Trend Height
m
Period
s
Dir
01/11:30pm 15.9 N 15 19 1001.6 - 0.2 - - - - - - -
01/11:00pm 16.0 N 17 20 1002.1 - 0.2 - - - - - - -
01/10:30pm 16.2 N 14 19 1002.5 - 0.2 - - - - - - -
01/10:00pm 16.3 N 15 19 1002.6 - 0.2 - - - - - - -
01/09:30pm 16.4 N 12 16 1002.9 - 0.2 - - - - - - -
01/09:00pm 16.4 NNE 16 20 1002.5 - 0.2 - - - - - - -
01/08:30pm 16.4 NNE 18 22 1002.0 - 0.2 - - - - - - -
01/08:00pm 16.4 NNE 17 20 1002.3 - 0.2 - - - - - - -
01/07:30pm 16.5 NNE 16 21 1002.5 - 0.2 - - - - - - -
01/07:00pm 16.6 NNE 12 17 1003.2 - 0.2 - - - - - - -
01/06:30pm 16.9 NNE 15 20 1003.3 - 0.2 - - - - - - -
01/06:00pm 16.4 NNE 10 13 1003.5 - 0.2 - - - - - - -
01/05:30pm 16.3 NNE 13 17 1004.0 - 0.2 - - - - - - -
01/05:00pm 16.3 NNE 15 19 1004.2 - 0.2 - - - - - - -
01/04:30pm 16.5 NNE 13 17 1004.7 - 0.2 - - - - - - -
01/04:00pm 16.6 NNE 11 15 1004.9 - 0.2 - - - - - - -
01/03:30pm 16.8 NNE 18 23 1005.3 - 0.0 - - - - - - -
01/03:00pm 17.8 NNE 16 20 1005.5 - 0.0 - - - - - - -
01/02:30pm 17.6 NNE 13 16 1005.8 - 0.0 - - - - - - -
01/02:00pm 19.0 N 12 15 1006.0 - 0.0 - - - - - - -
01/01:30pm 18.1 N 13 15 1006.3 - 0.0 - - - - - - -
01/01:00pm 18.5 N 11 14 1006.6 - 0.0 - - - - - - -
01/12:30pm 17.8 N 9 12 1007.1 - 0.0 - - - - - - -
01/12:00pm 17.1 N 9 11 1007.5 - 0.0 - - - - - - -
01/11:30am 16.9 N 7 8 1007.9 - 0.0 - - - - - - -
01/11:00am 16.2 N 7 9 1008.0 - 0.0 - - - - - - -
01/10:30am 16.6 NNE 8 10 1008.3 - 0.0 - - - - - - -
01/10:00am 16.1 NNW 10 11 1008.5 - 0.0 - - - - - - -
01/09:30am 16.1 NNW 6 8 1008.7 - 0.0 - - - - - - -
01/09:00am 15.8 NNW 7 8 1009.0 - 4.0 - - - - - - -
01/08:30am 15.6 NNW 7 8 1008.8 - 4.0 - - - - - - -
01/08:00am 15.9 N 7 9 1008.8 - 4.0 - - - - - - -
01/07:30am 15.2 NNW 5 6 1008.9 - 4.0 - - - - - - -
01/07:00am 15.3 NNW 3 5 1008.9 - 4.0 - - - - - - -
01/06:30am 14.5 NNW 4 5 1009.0 - 4.0 - - - - - - -
01/06:00am 13.8 WNW 3 4 1009.0 - 4.0 - - - - - - -
01/05:30am 14.5 NNW 5 6 1008.7 - 4.0 - - - - - - -
01/05:00am 14.5 N 6 8 1008.5 - 4.0 - - - - - - -
01/04:30am 14.7 NNW 6 8 1008.8 - 4.0 - - - - - - -
01/04:00am 14.8 N 9 10 1008.8 - 4.0 - - - - - - -
01/03:30am 15.0 N 9 10 1008.9 - 4.0 - - - - - - -
01/03:00am 15.0 N 9 11 1009.1 - 4.0 - - - - - - -
01/02:30am 15.1 N 11 15 1009.1 - 4.0 - - - - - - -
01/02:00am 15.2 NNE 12 15 1009.5 - 4.0 - - - - - - -
01/01:30am 15.3 NNE 12 15 1009.7 - 4.0 - - - - - - -
01/01:00am 15.4 NNE 13 16 1009.7 - 4.0 - - - - - - -

Other Formats:

Comma delimited format used in spreadsheet applications
http://www.bom.gov.au/fwo/IDT60701/IDT60701.95988.axf

JavaScript Object Notation format (JSON) in row-major order
http://www.bom.gov.au/fwo/IDT60701/IDT60701.95988.json